createdAt,value
2023-08-11T00:00:00.828Z,90
2023-08-11T00:04:00.954Z,90
2023-08-11T00:08:00.787Z,90
2023-08-11T00:12:00.840Z,90
2023-08-11T00:16:03.538Z,90
2023-08-11T00:20:01.167Z,90
2023-08-11T00:24:00.830Z,91
2023-08-11T00:28:01.011Z,91
2023-08-11T00:32:00.771Z,91
2023-08-11T00:36:00.912Z,91
2023-08-11T00:40:01.153Z,91
2023-08-11T00:44:01.102Z,92
2023-08-11T00:48:00.934Z,92
2023-08-11T00:52:01.306Z,92
2023-08-11T00:56:02.247Z,92
2023-08-11T01:00:01.956Z,92
2023-08-11T01:04:00.885Z,92
2023-08-11T01:08:05.041Z,92
2023-08-11T01:12:05.670Z,92
2023-08-11T01:16:03.000Z,92
2023-08-11T01:20:06.282Z,92
2023-08-11T01:24:02.031Z,93
2023-08-11T01:28:01.277Z,93
2023-08-11T01:32:00.973Z,93
2023-08-11T01:36:00.708Z,93
2023-08-11T01:40:01.001Z,93
2023-08-11T01:44:00.788Z,93
2023-08-11T01:48:01.419Z,93
2023-08-11T01:52:01.361Z,93
2023-08-11T01:56:01.357Z,93
2023-08-11T02:00:00.756Z,93
2023-08-11T02:04:00.979Z,93
2023-08-11T02:08:01.672Z,93
2023-08-11T02:12:00.829Z,93
2023-08-11T02:16:01.003Z,93
2023-08-11T02:20:10.965Z,93
2023-08-11T02:24:00.717Z,93
2023-08-11T02:28:01.002Z,93
2023-08-11T02:32:03.583Z,93
2023-08-11T02:36:00.889Z,93
2023-08-11T02:40:00.926Z,93
2023-08-11T02:44:00.893Z,93
2023-08-11T02:48:01.572Z,93
2023-08-11T02:52:00.945Z,93
2023-08-11T02:56:05.517Z,94
2023-08-11T03:00:01.100Z,94
2023-08-11T03:04:00.959Z,94
2023-08-11T03:08:01.170Z,94
2023-08-11T03:12:00.693Z,94
2023-08-11T03:16:01.153Z,94
2023-08-11T03:20:00.791Z,94
2023-08-11T03:24:00.779Z,94
2023-08-11T03:28:00.872Z,94
2023-08-11T03:32:01.006Z,94
2023-08-11T03:36:00.896Z,94
2023-08-11T03:40:01.386Z,94
2023-08-11T03:44:01.340Z,94
2023-08-11T03:48:00.924Z,94
2023-08-11T03:52:00.976Z,94
2023-08-11T03:56:01.052Z,94
2023-08-11T04:00:01.863Z,94
2023-08-11T04:04:00.972Z,93
2023-08-11T04:08:00.785Z,93
2023-08-11T04:12:00.750Z,93
2023-08-11T04:16:01.025Z,93
2023-08-11T04:20:00.831Z,93
2023-08-11T04:24:00.986Z,94
2023-08-11T04:28:02.696Z,94
2023-08-11T04:32:04.889Z,94
2023-08-11T04:36:00.956Z,94
2023-08-11T04:40:03.470Z,94
2023-08-11T04:44:00.841Z,94
2023-08-11T04:48:01.205Z,94
2023-08-11T04:52:01.232Z,94
2023-08-11T04:56:00.824Z,94
2023-08-11T05:00:04.003Z,94
2023-08-11T05:04:01.404Z,94
2023-08-11T05:08:01.037Z,94
2023-08-11T05:12:00.723Z,94
2023-08-11T05:16:01.330Z,94
2023-08-11T05:20:00.896Z,94
2023-08-11T05:24:00.757Z,95
2023-08-11T05:28:00.929Z,95
2023-08-11T05:32:00.999Z,95
2023-08-11T05:36:00.792Z,95
2023-08-11T05:40:01.084Z,95
2023-08-11T05:44:00.848Z,95
2023-08-11T05:48:00.955Z,95
2023-08-11T05:52:00.889Z,95
2023-08-11T05:56:00.817Z,95
2023-08-11T06:00:00.833Z,95
2023-08-11T06:04:01.157Z,95
2023-08-11T06:08:07.286Z,95
2023-08-11T06:12:00.852Z,95
2023-08-11T06:16:01.009Z,95
2023-08-11T06:20:01.627Z,95
2023-08-11T06:24:00.792Z,95
2023-08-11T06:28:01.846Z,95
2023-08-11T06:32:00.759Z,95
2023-08-11T06:36:00.851Z,95
2023-08-11T06:40:00.904Z,95
2023-08-11T06:44:00.861Z,93
2023-08-11T06:48:01.022Z,93
2023-08-11T06:52:01.029Z,93
2023-08-11T06:56:00.819Z,92
2023-08-11T07:00:00.843Z,92
2023-08-11T07:04:02.486Z,91
2023-08-11T07:08:01.321Z,91
2023-08-11T07:12:00.753Z,91
2023-08-11T07:16:01.589Z,90
2023-08-11T07:20:00.833Z,90
2023-08-11T07:24:00.904Z,90
2023-08-11T07:28:00.887Z,90
2023-08-11T07:32:00.810Z,90
2023-08-11T07:36:00.712Z,89
2023-08-11T07:40:00.927Z,89
2023-08-11T07:44:00.762Z,88
2023-08-11T07:48:01.573Z,88
2023-08-11T07:52:00.879Z,88
2023-08-11T07:56:00.894Z,88
2023-08-11T08:00:00.725Z,88
2023-08-11T08:04:01.090Z,86
2023-08-11T08:08:00.959Z,86
2023-08-11T08:12:02.108Z,86
2023-08-11T08:16:01.000Z,85
2023-08-11T08:20:01.068Z,85
2023-08-11T08:24:03.705Z,84
2023-08-11T08:28:07.203Z,84
2023-08-11T08:32:00.806Z,84
2023-08-11T08:36:00.865Z,83
2023-08-11T08:40:01.135Z,83
2023-08-11T08:44:01.348Z,83
2023-08-11T08:48:06.694Z,83
2023-08-11T08:52:05.811Z,83
2023-08-11T08:56:05.197Z,81
2023-08-11T09:00:00.917Z,81
2023-08-11T09:04:01.653Z,81
2023-08-11T09:08:00.866Z,81
2023-08-11T09:12:01.116Z,81
2023-08-11T09:16:02.439Z,79
2023-08-11T09:20:00.844Z,79
2023-08-11T09:24:00.860Z,79
2023-08-11T09:28:01.033Z,79
2023-08-11T09:32:02.705Z,79
2023-08-11T09:36:00.767Z,78
2023-08-11T09:40:04.067Z,78
2023-08-11T09:44:00.854Z,78
2023-08-11T09:48:00.881Z,78
2023-08-11T09:52:04.281Z,78
2023-08-11T09:56:02.089Z,78
2023-08-11T10:00:02.036Z,78
2023-08-11T10:04:02.914Z,77
2023-08-11T10:08:03.428Z,77
2023-08-11T10:12:01.275Z,77
2023-08-11T10:16:00.983Z,77
2023-08-11T10:20:05.069Z,77
2023-08-11T10:24:00.756Z,75
2023-08-11T10:28:01.591Z,75
2023-08-11T10:32:00.943Z,75
2023-08-11T10:36:01.151Z,72
2023-08-11T10:40:02.729Z,72
2023-08-11T10:44:00.939Z,71
2023-08-11T10:48:06.503Z,71
2023-08-11T10:52:01.784Z,71
2023-08-11T10:56:01.571Z,71
2023-08-11T11:00:00.965Z,71
2023-08-11T11:04:01.853Z,69
2023-08-11T11:08:01.070Z,69
2023-08-11T11:12:00.750Z,69
2023-08-11T11:16:01.069Z,70
2023-08-11T11:20:03.763Z,70
2023-08-11T11:24:01.131Z,71
2023-08-11T11:28:00.905Z,71
2023-08-11T11:32:06.596Z,71
2023-08-11T11:36:00.765Z,71
2023-08-11T11:40:06.704Z,71
2023-08-11T11:44:00.796Z,72
2023-08-11T11:48:01.557Z,72
2023-08-11T11:52:01.223Z,72
2023-08-11T11:56:01.265Z,71
2023-08-11T12:00:02.609Z,71
2023-08-11T12:04:03.601Z,72
2023-08-11T12:08:11.698Z,72
2023-08-11T12:12:02.574Z,72
2023-08-11T12:16:00.912Z,67
2023-08-11T12:20:00.920Z,67
2023-08-11T12:24:00.734Z,66
2023-08-11T12:28:02.363Z,66
2023-08-11T12:32:00.827Z,66
2023-08-11T12:36:00.775Z,66
2023-08-11T12:40:01.967Z,66
2023-08-11T12:44:01.464Z,66
2023-08-11T12:48:01.104Z,66
2023-08-11T12:52:01.173Z,66
2023-08-11T12:56:01.057Z,65
2023-08-11T13:00:00.880Z,65
2023-08-11T13:04:01.817Z,65
2023-08-11T13:08:01.377Z,65
2023-08-11T13:12:00.763Z,65
2023-08-11T13:16:01.166Z,66
2023-08-11T13:20:06.545Z,66
2023-08-11T13:24:01.014Z,67
2023-08-11T13:28:01.029Z,67
2023-08-11T13:32:01.283Z,67
2023-08-11T13:36:01.127Z,67
2023-08-11T13:40:01.088Z,67
2023-08-11T13:44:00.750Z,68
2023-08-11T13:48:00.962Z,68
2023-08-11T13:52:00.862Z,68
2023-08-11T13:56:01.061Z,67
2023-08-11T14:00:00.860Z,67
2023-08-11T14:04:00.934Z,66
2023-08-11T14:08:00.769Z,66
2023-08-11T14:12:00.781Z,66
2023-08-11T14:16:01.024Z,65
2023-08-11T14:20:00.941Z,65
2023-08-11T14:24:00.757Z,67
2023-08-11T14:28:02.692Z,67
2023-08-11T14:32:24.448Z,67
2023-08-11T14:36:13.186Z,66
2023-08-11T14:40:01.130Z,66
2023-08-11T14:44:01.770Z,68
2023-08-11T14:48:00.852Z,68
2023-08-11T14:52:00.975Z,68
2023-08-11T14:56:00.777Z,69
2023-08-11T15:00:01.296Z,69
2023-08-11T15:04:00.926Z,69
2023-08-11T15:08:00.889Z,69
2023-08-11T15:12:00.727Z,69
2023-08-11T15:16:00.994Z,68
2023-08-11T15:20:00.769Z,68
2023-08-11T15:24:00.821Z,68
2023-08-11T15:28:00.892Z,68
2023-08-11T15:32:00.904Z,68
2023-08-11T15:36:00.818Z,69
2023-08-11T15:40:00.978Z,69
2023-08-11T15:44:00.979Z,70
2023-08-11T15:48:01.028Z,70
2023-08-11T15:52:00.810Z,70
2023-08-11T15:56:01.594Z,71
2023-08-11T16:00:00.890Z,71
2023-08-11T16:04:01.286Z,71
2023-08-11T16:08:00.824Z,71
2023-08-11T16:12:00.864Z,71
2023-08-11T16:16:00.901Z,72
2023-08-11T16:20:00.848Z,72
2023-08-11T16:24:00.762Z,71
2023-08-11T16:28:01.003Z,71
2023-08-11T16:32:00.803Z,71
2023-08-11T16:36:01.659Z,70
2023-08-11T16:40:01.562Z,70
2023-08-11T16:44:00.949Z,71
2023-08-11T16:48:03.382Z,71
2023-08-11T16:52:01.355Z,71
2023-08-11T16:56:00.819Z,72
2023-08-11T17:00:00.981Z,72
2023-08-11T17:04:01.311Z,72
2023-08-11T17:08:00.841Z,72
2023-08-11T17:12:00.931Z,72
2023-08-11T17:16:00.866Z,72
2023-08-11T17:20:00.781Z,72
2023-08-11T17:24:00.941Z,71
2023-08-11T17:28:00.831Z,71
2023-08-11T17:32:00.866Z,71
2023-08-11T17:36:01.707Z,71
2023-08-11T17:40:01.505Z,71
2023-08-11T17:44:00.740Z,72
2023-08-11T17:48:01.020Z,72
2023-08-11T17:52:00.778Z,72
2023-08-11T17:56:00.817Z,72
2023-08-11T18:00:00.861Z,72
2023-08-11T18:04:06.179Z,73
2023-08-11T18:08:00.715Z,73
2023-08-11T18:12:00.933Z,73
2023-08-11T18:16:00.847Z,73
2023-08-11T18:20:00.964Z,73
2023-08-11T18:24:00.901Z,74
2023-08-11T18:28:01.233Z,74
2023-08-11T18:32:00.749Z,74
2023-08-11T18:36:00.996Z,74
2023-08-11T18:40:00.833Z,74
2023-08-11T18:44:00.750Z,75
2023-08-11T18:48:01.741Z,75
2023-08-11T18:52:00.894Z,75
2023-08-11T18:56:00.753Z,76
2023-08-11T19:00:00.903Z,76
2023-08-11T19:04:00.923Z,76
2023-08-11T19:08:01.153Z,76
2023-08-11T19:12:00.815Z,76
2023-08-11T19:16:00.976Z,76
2023-08-11T19:20:02.019Z,76
2023-08-11T19:24:00.870Z,77
2023-08-11T19:28:00.825Z,77
2023-08-11T19:32:00.885Z,77
2023-08-11T19:36:01.034Z,77
2023-08-11T19:40:01.020Z,77
2023-08-11T19:44:01.717Z,78
2023-08-11T19:48:00.995Z,78
2023-08-11T19:52:00.808Z,78
2023-08-11T19:56:00.910Z,78
2023-08-11T20:00:00.950Z,78
2023-08-11T20:04:00.967Z,79
2023-08-11T20:08:00.931Z,79
2023-08-11T20:12:00.891Z,79
2023-08-11T20:16:03.436Z,79
2023-08-11T20:20:00.877Z,79
2023-08-11T20:24:00.858Z,79
2023-08-11T20:28:01.100Z,79
2023-08-11T20:32:03.859Z,79
2023-08-11T20:36:00.974Z,80
2023-08-11T20:40:00.879Z,80
2023-08-11T20:44:01.233Z,80
2023-08-11T20:48:01.147Z,80
2023-08-11T20:52:00.997Z,80
2023-08-11T20:56:00.821Z,80
2023-08-11T21:00:00.931Z,80
2023-08-11T21:04:00.853Z,81
2023-08-11T21:08:00.953Z,81
2023-08-11T21:12:01.439Z,81
2023-08-11T21:16:00.964Z,81
2023-08-11T21:20:00.776Z,81
2023-08-11T21:24:01.469Z,81
2023-08-11T21:28:01.280Z,81
2023-08-11T21:32:01.011Z,81
2023-08-11T21:36:00.812Z,80
2023-08-11T21:40:01.003Z,80
2023-08-11T21:44:02.100Z,80
2023-08-11T21:48:01.061Z,80
2023-08-11T21:52:00.763Z,80
2023-08-11T21:56:00.853Z,81
2023-08-11T22:00:00.925Z,81
2023-08-11T22:04:01.023Z,81
2023-08-11T22:08:01.355Z,81
2023-08-11T22:12:01.592Z,81
2023-08-11T22:16:00.993Z,81
2023-08-11T22:20:00.959Z,81
2023-08-11T22:24:00.835Z,81
2023-08-11T22:28:00.949Z,81
2023-08-11T22:32:01.166Z,81
2023-08-11T22:36:00.915Z,81
2023-08-11T22:40:00.898Z,81
2023-08-11T22:44:00.823Z,81
2023-08-11T22:48:00.866Z,81
2023-08-11T22:52:00.875Z,81
2023-08-11T22:56:00.784Z,82
2023-08-11T23:00:01.228Z,82
2023-08-11T23:04:00.882Z,82
2023-08-11T23:08:01.195Z,82
2023-08-11T23:12:03.481Z,82
2023-08-11T23:16:01.107Z,83
2023-08-11T23:20:01.064Z,83
2023-08-11T23:24:01.057Z,83
2023-08-11T23:28:01.036Z,83
2023-08-11T23:32:00.949Z,83
2023-08-11T23:36:00.927Z,83
2023-08-11T23:40:00.931Z,83
2023-08-11T23:44:01.005Z,84
2023-08-11T23:48:01.127Z,84
2023-08-11T23:52:00.833Z,84
2023-08-11T23:56:01.126Z,85
